Address 0xe855127b5015717ffa0df04b831fc8597812c7f4

Overview

Balance:
2,505.601325999999986 BTT

BTT Value:
Less Than $0.01 (@ $0.00/BTT)
Txn Hash Method
Block
From
To
Value [Txn Fee]
0xcf7c882eea6f40267d86bf02f51928ec6a455941a0434a28ac83d28caddb98b9Withdraw163626182023-01-05 11:09:1334 days 6 hrs ago0xe855127b5015717ffa0df04b831fc8597812c7f4OUT 0x23181f21dea5936e24163ffaba4ea3b316b57f3c0 BTT6.0522
0xbef8453578aba936a7758a61618e19b796014d5dd582fdd758dbc21fdcd344a4Withdraw163626162023-01-05 11:09:0934 days 6 hrs ago0xe855127b5015717ffa0df04b831fc8597812c7f4OUT 0x2872b6c55389d9a0dc17ea35433f18e770baf4400 BTT16.5618
0x3090dc9f0eb5eb082e436b3c5aac456de296a6a7ef05d55d28ba57a4bcc001e3Cash Cheque Bene...163626142023-01-05 11:09:0534 days 6 hrs ago0xe855127b5015717ffa0df04b831fc8597812c7f4OUT 0xda33b6783e2b171664f67db16467cc68e74e92360 BTT32.9181
0xb48f916d329f086ab1748e33231bb2c64647d706efb74e02db5413581de3e19bWithdraw162711942023-01-03 6:46:3336 days 10 hrs ago0xe855127b5015717ffa0df04b831fc8597812c7f4OUT 0x23181f21dea5936e24163ffaba4ea3b316b57f3c0 BTT6.0522
0x7af95980a3265bb7403773412c90ce12e0625cb1971e0ad0748df23e6e1ec649Withdraw162711912023-01-03 6:46:2736 days 10 hrs ago0xe855127b5015717ffa0df04b831fc8597812c7f4OUT 0x2872b6c55389d9a0dc17ea35433f18e770baf4400 BTT16.5618
0x231152fe525295c1959b724d0aba7367f74b0423191cf8e6b00d526f62cbb7b1Cash Cheque Bene...162711882023-01-03 6:46:2136 days 10 hrs ago0xe855127b5015717ffa0df04b831fc8597812c7f4OUT 0x456429995e66ba9c3ca58898d1805f830345fb240 BTT32.9181
0xf1d4925b33b4cdac160794b5417605087d8c09c3537a7355f5fbaef26eb00a4cUpgrade To157038272022-12-20 17:43:1949 days 23 hrs ago0xe855127b5015717ffa0df04b831fc8597812c7f4OUT 0x2872b6c55389d9a0dc17ea35433f18e770baf4400 BTT12.6534
0xaf50d22439ef081cd64a4d25a37a1fa69d34ebef6e2aa4f644e2bb787b0edc0bApprove157038272022-12-20 17:43:1949 days 23 hrs ago0xe855127b5015717ffa0df04b831fc8597812c7f4OUTBitTorrent: USDT_t Token0 BTT13.8993
0x3d97d43fc1ac040ffbf884d2082d863f7cad43ed610a78fd858e9bebb08c8ed8Approve157029712022-12-20 17:13:5150 days ago0xe855127b5015717ffa0df04b831fc8597812c7f4OUT Decentralized USD: USDD_t Token0 BTT13.8993
0x88cf803a07516bdd7f88ba357714a4f5eab8c9eea68957d33e08a88e5779637fApprove157029702022-12-20 17:13:4950 days ago0xe855127b5015717ffa0df04b831fc8597812c7f4OUTBitTorrent: TRX Token0 BTT13.8993
0x0ec50ab5a145d50c4c98e29a811a712c34a3560749259d6d5d0e320a9a097dbcReport Status156772112022-12-20 2:28:2350 days 14 hrs ago0xe855127b5015717ffa0df04b831fc8597812c7f4OUT 0x6dbad4bd16c15ae6ddeaa640626e5a3e151f02fc0 BTT36.9516
0x43ff2c97fea08a4faba9aa6d45159335daecbf4e3322165e038710f3eb81147bReport Status156353212022-12-19 2:28:2351 days 14 hrs ago0xe855127b5015717ffa0df04b831fc8597812c7f4OUT 0x6dbad4bd16c15ae6ddeaa640626e5a3e151f02fc0 BTT36.9516
0xfb5b6e478f9bcc7bdc513998a807cc4235af10b3fa835f3fd0d0aa133a1cfe31Report Status155934292022-12-18 2:28:2352 days 14 hrs ago0xe855127b5015717ffa0df04b831fc8597812c7f4OUT 0x6dbad4bd16c15ae6ddeaa640626e5a3e151f02fc0 BTT36.948
0x93a879fc893c7dfe304fe4faee84006c22a4adbf7dab3eb2efef5c7b42050046Report Status155515392022-12-17 2:28:2353 days 14 hrs ago0xe855127b5015717ffa0df04b831fc8597812c7f4OUT 0x6dbad4bd16c15ae6ddeaa640626e5a3e151f02fc0 BTT37.788
0x5d134897eb0c143b36e5d87fcbefb9d2a3a45a0f080150539aa195cbb4c6d881Report Status155096472022-12-16 2:28:2354 days 14 hrs ago0xe855127b5015717ffa0df04b831fc8597812c7f4OUT 0x6dbad4bd16c15ae6ddeaa640626e5a3e151f02fc0 BTT33.2916
0xeedacd1630cc92d1cc584157ab5a0692fccc4cdf19650bf56574a155d646c812Report Status154677562022-12-15 2:28:2155 days 14 hrs ago0xe855127b5015717ffa0df04b831fc8597812c7f4OUT 0x6dbad4bd16c15ae6ddeaa640626e5a3e151f02fc0 BTT36.9552
0xb1a97d3021859af9ebb3e8ff18c56b96419d3e53b5705191b37c44a10ad316d2Report Status154258652022-12-14 2:28:2356 days 14 hrs ago0xe855127b5015717ffa0df04b831fc8597812c7f4OUT 0x6dbad4bd16c15ae6ddeaa640626e5a3e151f02fc0 BTT36.9552
0x468af13f94f4936752de98e1bc3b677b66bb548a8f69f12d6ea984ef0c1668e6Report Status153839752022-12-13 2:28:2357 days 14 hrs ago0xe855127b5015717ffa0df04b831fc8597812c7f4OUT 0x6dbad4bd16c15ae6ddeaa640626e5a3e151f02fc0 BTT36.9552
0x4cf65ca67dbb229a212a8cf2de6df05ae48d6ca3c641a7ca719e3184e18d1881Report Status153420832022-12-12 2:28:2358 days 14 hrs ago0xe855127b5015717ffa0df04b831fc8597812c7f4OUT 0x6dbad4bd16c15ae6ddeaa640626e5a3e151f02fc0 BTT42.9252
0xd2807e7dd2a16e460136e61b45c414e145873f89df5c0be423b1354bde3c2587Report Status153001932022-12-11 2:28:2359 days 14 hrs ago0xe855127b5015717ffa0df04b831fc8597812c7f4OUT 0x6dbad4bd16c15ae6ddeaa640626e5a3e151f02fc0 BTT33.2916
0x92d9577fd4be1acc4d770dd853255319fa914a31642082ffe151c844be6a3b50Report Status152583032022-12-10 2:28:2360 days 14 hrs ago0xe855127b5015717ffa0df04b831fc8597812c7f4OUT 0x6dbad4bd16c15ae6ddeaa640626e5a3e151f02fc0 BTT42.9102
0x296a71fd51d7c2a9d18acc7df3b129a38b305dbebc25ba5df45d7790867984aeReport Status152164112022-12-09 2:28:2361 days 14 hrs ago0xe855127b5015717ffa0df04b831fc8597812c7f4OUT 0x6dbad4bd16c15ae6ddeaa640626e5a3e151f02fc0 BTT33.2916
0xe865540dff107ccf702ab4ef96cec969033e292970179212df6cdd0147d62023Report Status151745212022-12-08 2:28:2362 days 14 hrs ago0xe855127b5015717ffa0df04b831fc8597812c7f4OUT 0x6dbad4bd16c15ae6ddeaa640626e5a3e151f02fc0 BTT43.7652
0xf6dde633c7998ff0c9849a4f38622ad7ad54cd39cb8b38adbd679f18ac37f606Report Status151326292022-12-07 2:28:2363 days 14 hrs ago0xe855127b5015717ffa0df04b831fc8597812c7f4OUT 0x6dbad4bd16c15ae6ddeaa640626e5a3e151f02fc0 BTT34.128
0xd0936504d6adb5b4531ecdff1b28a9709496ceabfd45bc84ca4b61f570ee21f1Report Status150907392022-12-06 2:28:2364 days 14 hrs ago0xe855127b5015717ffa0df04b831fc8597812c7f4OUT 0x6dbad4bd16c15ae6ddeaa640626e5a3e151f02fc0 BTT42.9252
[ Download CSV Export 
Latest 4 internal transactions
Parent Txn Hash Block From To Value
0xcf7c882eea6f40267d86bf02f51928ec6a455941a0434a28ac83d28caddb98b9163626182023-01-05 11:09:1334 days 6 hrs ago 0x23181f21dea5936e24163ffaba4ea3b316b57f3c0xe855127b5015717ffa0df04b831fc8597812c7f4155.866253 BTT
0xb48f916d329f086ab1748e33231bb2c64647d706efb74e02db5413581de3e19b162711942023-01-03 6:46:3336 days 10 hrs ago 0x23181f21dea5936e24163ffaba4ea3b316b57f3c0xe855127b5015717ffa0df04b831fc8597812c7f4155.923473 BTT
0x2773ea89e1e8b90d8586a9ee8117690a92c4df7b5db5b62e0d2ce29da7123ffc113071362022-09-06 16:08:59155 days 1 hr ago 0x23181f21dea5936e24163ffaba4ea3b316b57f3c0xe855127b5015717ffa0df04b831fc8597812c7f4148.976608 BTT
0x3cde7f62a9f570cf8daf009fbcfccaa9ea927ee740c674bbfd3a9881defb7b2494568272022-07-24 10:09:17199 days 7 hrs ago 0x23181f21dea5936e24163ffaba4ea3b316b57f3c0xe855127b5015717ffa0df04b831fc8597812c7f4778.884176 BTT
[ Download CSV Export 
Loading

Contract Name:
0

Compiler Version
0

Optimization Enabled:
0

Other Settings:
-NA-
Block Transaction Gas Used Reward
Age Block Fee Address BC Fee Address Voting Power Jailed Incoming
Block Uncle Number Difficulty Gas Used Reward
Loading
Make sure to use the "Vote Down" button for any spammy posts, and the "Vote Up" for interesting conversations.